Bayview, Wisconsin
Current Conditions -  °F | °C
As of 3:52 AM on Monday 22 Dec 2014 (Local Time) from KMKE Reporting Station
Overcast Overcast  
Wind Chill: -3°   Ceiling: 5500
Heat Index:   Visibility: 7mi
Dew Point: -2°   Wind: 10mph
Humidity: 79%   Direction: 160°SSE
Pressure: 29.96"   Gusts: NA
Location:  42.9708°N, 87.8754°W
Report Text: KMKE 220952Z 16009KT 7SM FEW040 OVC055 01/M02 A2996 RMK AO2 SLP153 T00111022 $
Loading
Personal Weather Stations






























Interactive Weather Map New forecast layout! Learn more

10-Day Weather Forecast

Advertisements
Track Severe Weather on mobile